sensor_id;sensor_type;location;lat;lon;timestamp;P1;durP1;ratioP1;P2;durP2;ratioP2
71360;SDS011;59166;48.908;1.870;2023-04-06T00:03:09;14.17;;;5.60;;
71360;SDS011;59166;48.908;1.870;2023-04-06T00:08:11;13.55;;;6.20;;
71360;SDS011;59166;48.908;1.870;2023-04-06T00:13:12;15.60;;;6.07;;
71360;SDS011;59166;48.908;1.870;2023-04-06T00:18:13;13.63;;;5.70;;
71360;SDS011;59166;48.908;1.870;2023-04-06T00:23:15;13.05;;;5.80;;
71360;SDS011;59166;48.908;1.870;2023-04-06T00:28:17;13.50;;;5.73;;
71360;SDS011;59166;48.908;1.870;2023-04-06T00:33:18;13.67;;;5.30;;
71360;SDS011;59166;48.908;1.870;2023-04-06T00:38:20;12.57;;;4.97;;
71360;SDS011;59166;48.908;1.870;2023-04-06T00:43:21;12.47;;;4.83;;
71360;SDS011;59166;48.908;1.870;2023-04-06T00:48:22;14.45;;;5.10;;
71360;SDS011;59166;48.908;1.870;2023-04-06T00:53:25;12.73;;;5.10;;
71360;SDS011;59166;48.908;1.870;2023-04-06T00:58:26;12.73;;;4.90;;
71360;SDS011;59166;48.908;1.870;2023-04-06T01:03:27;12.95;;;5.40;;
71360;SDS011;59166;48.908;1.870;2023-04-06T01:13:31;12.70;;;4.95;;
71360;SDS011;59166;48.908;1.870;2023-04-06T01:18:32;11.88;;;4.50;;
71360;SDS011;59166;48.908;1.870;2023-04-06T01:23:34;12.23;;;5.30;;
71360;SDS011;59166;48.908;1.870;2023-04-06T01:28:35;12.85;;;5.20;;
71360;SDS011;59166;48.908;1.870;2023-04-06T01:33:36;13.98;;;4.85;;
71360;SDS011;59166;48.908;1.870;2023-04-06T01:38:39;12.87;;;5.13;;
71360;SDS011;59166;48.908;1.870;2023-04-06T01:43:40;12.52;;;5.15;;
71360;SDS011;59166;48.908;1.870;2023-04-06T01:48:41;15.95;;;6.05;;
71360;SDS011;59166;48.908;1.870;2023-04-06T01:53:43;16.43;;;6.33;;
71360;SDS011;59166;48.908;1.870;2023-04-06T01:58:44;15.15;;;6.00;;
71360;SDS011;59166;48.908;1.870;2023-04-06T02:03:45;13.37;;;5.40;;
71360;SDS011;59166;48.908;1.870;2023-04-06T02:08:47;12.52;;;5.50;;
71360;SDS011;59166;48.908;1.870;2023-04-06T02:13:48;13.10;;;5.07;;
71360;SDS011;59166;48.908;1.870;2023-04-06T02:18:49;16.93;;;4.93;;
71360;SDS011;59166;48.908;1.870;2023-04-06T02:23:51;12.52;;;5.57;;
71360;SDS011;59166;48.908;1.870;2023-04-06T02:28:52;12.52;;;6.07;;
71360;SDS011;59166;48.908;1.870;2023-04-06T02:33:53;14.50;;;6.03;;
71360;SDS011;59166;48.908;1.870;2023-04-06T02:38:56;16.02;;;6.40;;
71360;SDS011;59166;48.908;1.870;2023-04-06T02:43:57;13.80;;;6.17;;
71360;SDS011;59166;48.908;1.870;2023-04-06T02:48:58;15.10;;;6.10;;
71360;SDS011;59166;48.908;1.870;2023-04-06T02:54:00;14.63;;;6.30;;
71360;SDS011;59166;48.908;1.870;2023-04-06T02:59:01;15.70;;;7.00;;
71360;SDS011;59166;48.908;1.870;2023-04-06T03:04:02;15.90;;;6.80;;
71360;SDS011;59166;48.908;1.870;2023-04-06T03:09:05;14.75;;;6.45;;
71360;SDS011;59166;48.908;1.870;2023-04-06T03:14:06;14.20;;;6.33;;
71360;SDS011;59166;48.908;1.870;2023-04-06T03:19:07;14.07;;;5.83;;
71360;SDS011;59166;48.908;1.870;2023-04-06T03:24:09;15.52;;;6.47;;
71360;SDS011;59166;48.908;1.870;2023-04-06T03:29:10;15.77;;;6.43;;
71360;SDS011;59166;48.908;1.870;2023-04-06T03:34:11;16.88;;;7.78;;
71360;SDS011;59166;48.908;1.870;2023-04-06T03:39:14;14.40;;;7.00;;
71360;SDS011;59166;48.908;1.870;2023-04-06T03:44:15;13.27;;;6.10;;
71360;SDS011;59166;48.908;1.870;2023-04-06T03:49:16;16.27;;;6.82;;
71360;SDS011;59166;48.908;1.870;2023-04-06T03:54:18;14.10;;;6.23;;
71360;SDS011;59166;48.908;1.870;2023-04-06T03:59:19;13.50;;;5.90;;
71360;SDS011;59166;48.908;1.870;2023-04-06T04:04:20;15.70;;;6.65;;
71360;SDS011;59166;48.908;1.870;2023-04-06T04:09:22;15.13;;;6.90;;
71360;SDS011;59166;48.908;1.870;2023-04-06T04:14:23;16.20;;;6.13;;
71360;SDS011;59166;48.908;1.870;2023-04-06T04:19:24;16.30;;;6.88;;
71360;SDS011;59166;48.908;1.870;2023-04-06T04:24:27;15.17;;;6.50;;
71360;SDS011;59166;48.908;1.870;2023-04-06T04:29:28;16.23;;;6.60;;
71360;SDS011;59166;48.908;1.870;2023-04-06T04:34:28;17.73;;;6.82;;
71360;SDS011;59166;48.908;1.870;2023-04-06T04:39:31;16.43;;;6.80;;
71360;SDS011;59166;48.908;1.870;2023-04-06T04:44:32;16.67;;;7.00;;
71360;SDS011;59166;48.908;1.870;2023-04-06T04:49:33;17.50;;;7.57;;
71360;SDS011;59166;48.908;1.870;2023-04-06T04:54:36;17.50;;;8.03;;
71360;SDS011;59166;48.908;1.870;2023-04-06T04:59:37;18.80;;;8.52;;
71360;SDS011;59166;48.908;1.870;2023-04-06T05:04:38;19.60;;;8.30;;
71360;SDS011;59166;48.908;1.870;2023-04-06T05:09:40;19.48;;;8.85;;
71360;SDS011;59166;48.908;1.870;2023-04-06T05:14:41;19.58;;;8.40;;
71360;SDS011;59166;48.908;1.870;2023-04-06T05:19:42;17.17;;;7.93;;
71360;SDS011;59166;48.908;1.870;2023-04-06T05:24:45;19.77;;;9.13;;
71360;SDS011;59166;48.908;1.870;2023-04-06T05:29:46;19.52;;;9.05;;
71360;SDS011;59166;48.908;1.870;2023-04-06T05:34:47;21.03;;;9.50;;
71360;SDS011;59166;48.908;1.870;2023-04-06T05:39:50;23.50;;;10.77;;
71360;SDS011;59166;48.908;1.870;2023-04-06T05:44:51;24.38;;;10.77;;
71360;SDS011;59166;48.908;1.870;2023-04-06T05:49:52;18.57;;;8.97;;
71360;SDS011;59166;48.908;1.870;2023-04-06T05:54:54;17.95;;;8.32;;
71360;SDS011;59166;48.908;1.870;2023-04-06T05:59:55;17.83;;;8.35;;
71360;SDS011;59166;48.908;1.870;2023-04-06T06:04:56;18.30;;;8.20;;
71360;SDS011;59166;48.908;1.870;2023-04-06T06:09:59;17.55;;;8.18;;
71360;SDS011;59166;48.908;1.870;2023-04-06T06:14:59;19.92;;;8.70;;
71360;SDS011;59166;48.908;1.870;2023-04-06T06:20:00;19.27;;;8.60;;
71360;SDS011;59166;48.908;1.870;2023-04-06T06:25:03;18.23;;;8.10;;
71360;SDS011;59166;48.908;1.870;2023-04-06T06:30:05;18.30;;;8.40;;
71360;SDS011;59166;48.908;1.870;2023-04-06T06:35:07;20.10;;;8.63;;
71360;SDS011;59166;48.908;1.870;2023-04-06T06:40:10;18.77;;;9.25;;
71360;SDS011;59166;48.908;1.870;2023-04-06T06:45:11;18.52;;;9.05;;
71360;SDS011;59166;48.908;1.870;2023-04-06T06:50:12;21.93;;;10.60;;
71360;SDS011;59166;48.908;1.870;2023-04-06T06:55:15;20.92;;;10.00;;
71360;SDS011;59166;48.908;1.870;2023-04-06T07:00:16;23.05;;;10.95;;
71360;SDS011;59166;48.908;1.870;2023-04-06T07:05:17;22.10;;;10.73;;
71360;SDS011;59166;48.908;1.870;2023-04-06T07:10:20;22.20;;;10.82;;
71360;SDS011;59166;48.908;1.870;2023-04-06T07:15:20;25.38;;;11.65;;
71360;SDS011;59166;48.908;1.870;2023-04-06T07:20:21;20.63;;;10.97;;
71360;SDS011;59166;48.908;1.870;2023-04-06T07:25:24;25.70;;;11.57;;
71360;SDS011;59166;48.908;1.870;2023-04-06T07:30:25;23.73;;;11.20;;
71360;SDS011;59166;48.908;1.870;2023-04-06T07:35:26;24.83;;;11.73;;
71360;SDS011;59166;48.908;1.870;2023-04-06T07:40:29;28.00;;;12.63;;
71360;SDS011;59166;48.908;1.870;2023-04-06T07:45:30;24.83;;;11.97;;
71360;SDS011;59166;48.908;1.870;2023-04-06T07:50:31;25.00;;;11.55;;
71360;SDS011;59166;48.908;1.870;2023-04-06T07:55:33;24.00;;;11.40;;
71360;SDS011;59166;48.908;1.870;2023-04-06T08:00:34;25.08;;;11.90;;
71360;SDS011;59166;48.908;1.870;2023-04-06T08:05:35;24.58;;;11.70;;
71360;SDS011;59166;48.908;1.870;2023-04-06T08:10:37;24.63;;;11.77;;
71360;SDS011;59166;48.908;1.870;2023-04-06T08:15:38;24.85;;;11.52;;
71360;SDS011;59166;48.908;1.870;2023-04-06T08:20:39;25.30;;;11.43;;
71360;SDS011;59166;48.908;1.870;2023-04-06T08:25:41;24.17;;;10.68;;
71360;SDS011;59166;48.908;1.870;2023-04-06T08:30:42;24.48;;;10.63;;
71360;SDS011;59166;48.908;1.870;2023-04-06T08:35:43;23.57;;;9.90;;
71360;SDS011;59166;48.908;1.870;2023-04-06T08:40:46;23.02;;;10.57;;
71360;SDS011;59166;48.908;1.870;2023-04-06T08:45:47;22.57;;;10.13;;
71360;SDS011;59166;48.908;1.870;2023-04-06T08:50:51;21.90;;;9.23;;
71360;SDS011;59166;48.908;1.870;2023-04-06T08:55:53;21.20;;;9.68;;
71360;SDS011;59166;48.908;1.870;2023-04-06T09:00:55;20.27;;;9.18;;
71360;SDS011;59166;48.908;1.870;2023-04-06T09:05:58;19.47;;;8.43;;
71360;SDS011;59166;48.908;1.870;2023-04-06T09:11:01;19.42;;;8.85;;
71360;SDS011;59166;48.908;1.870;2023-04-06T09:16:03;17.02;;;7.32;;
71360;SDS011;59166;48.908;1.870;2023-04-06T09:21:05;17.63;;;7.40;;
71360;SDS011;59166;48.908;1.870;2023-04-06T09:26:10;17.17;;;7.32;;
71360;SDS011;59166;48.908;1.870;2023-04-06T09:31:12;16.55;;;6.82;;
71360;SDS011;59166;48.908;1.870;2023-04-06T09:36:13;16.43;;;7.53;;
71360;SDS011;59166;48.908;1.870;2023-04-06T09:41:21;15.90;;;6.83;;
71360;SDS011;59166;48.908;1.870;2023-04-06T09:46:23;15.73;;;6.75;;
71360;SDS011;59166;48.908;1.870;2023-04-06T09:51:24;17.27;;;7.00;;
71360;SDS011;59166;48.908;1.870;2023-04-06T09:56:33;14.40;;;6.00;;
71360;SDS011;59166;48.908;1.870;2023-04-06T10:01:44;15.02;;;6.80;;
71360;SDS011;59166;48.908;1.870;2023-04-06T10:06:48;15.00;;;6.40;;
71360;SDS011;59166;48.908;1.870;2023-04-06T10:11:50;16.33;;;6.17;;
71360;SDS011;59166;48.908;1.870;2023-04-06T10:16:52;15.80;;;6.35;;
71360;SDS011;59166;48.908;1.870;2023-04-06T10:21:54;14.95;;;5.80;;
71360;SDS011;59166;48.908;1.870;2023-04-06T10:27:00;14.43;;;5.73;;
71360;SDS011;59166;48.908;1.870;2023-04-06T10:32:02;13.83;;;5.60;;
71360;SDS011;59166;48.908;1.870;2023-04-06T10:37:10;14.48;;;5.75;;
71360;SDS011;59166;48.908;1.870;2023-04-06T10:42:14;13.93;;;6.05;;
71360;SDS011;59166;48.908;1.870;2023-04-06T10:47:17;10.20;;;3.27;;
71360;SDS011;59166;48.908;1.870;2023-04-06T10:52:18;11.32;;;4.43;;
71360;SDS011;59166;48.908;1.870;2023-04-06T10:57:29;9.75;;;4.05;;
71360;SDS011;59166;48.908;1.870;2023-04-06T11:02:30;11.43;;;4.40;;
71360;SDS011;59166;48.908;1.870;2023-04-06T11:07:31;7.45;;;2.90;;
71360;SDS011;59166;48.908;1.870;2023-04-06T11:12:33;10.02;;;3.50;;
71360;SDS011;59166;48.908;1.870;2023-04-06T11:17:35;7.30;;;2.93;;
71360;SDS011;59166;48.908;1.870;2023-04-06T11:22:47;10.20;;;4.10;;
71360;SDS011;59166;48.908;1.870;2023-04-06T11:27:50;9.35;;;3.40;;
71360;SDS011;59166;48.908;1.870;2023-04-06T12:29:06;5.03;;;1.70;;
71360;SDS011;59166;48.908;1.870;2023-04-06T12:34:07;4.80;;;1.52;;
71360;SDS011;59166;48.908;1.870;2023-04-06T12:39:09;6.65;;;1.80;;
71360;SDS011;59166;48.908;1.870;2023-04-06T12:44:10;7.87;;;1.67;;
71360;SDS011;59166;48.908;1.870;2023-04-06T12:49:11;7.43;;;1.63;;
71360;SDS011;59166;48.908;1.870;2023-04-06T12:54:13;6.33;;;1.40;;
71360;SDS011;59166;48.908;1.870;2023-04-06T12:59:14;5.82;;;1.38;;
71360;SDS011;59166;48.908;1.870;2023-04-06T13:04:15;4.82;;;1.30;;
71360;SDS011;59166;48.908;1.870;2023-04-06T13:09:18;7.03;;;1.47;;
71360;SDS011;59166;48.908;1.870;2023-04-06T13:14:19;9.98;;;1.55;;
71360;SDS011;59166;48.908;1.870;2023-04-06T13:19:21;6.17;;;1.53;;
71360;SDS011;59166;48.908;1.870;2023-04-06T13:24:23;6.73;;;1.30;;
71360;SDS011;59166;48.908;1.870;2023-04-06T13:29:24;8.48;;;1.40;;
71360;SDS011;59166;48.908;1.870;2023-04-06T13:34:25;5.43;;;1.10;;
71360;SDS011;59166;48.908;1.870;2023-04-06T13:39:28;8.10;;;1.35;;
71360;SDS011;59166;48.908;1.870;2023-04-06T13:44:28;5.15;;;1.33;;
71360;SDS011;59166;48.908;1.870;2023-04-06T13:49:29;5.23;;;1.40;;
71360;SDS011;59166;48.908;1.870;2023-04-06T13:54:32;6.35;;;1.27;;
71360;SDS011;59166;48.908;1.870;2023-04-06T13:59:33;6.27;;;0.90;;
71360;SDS011;59166;48.908;1.870;2023-04-06T14:04:34;6.27;;;1.47;;
71360;SDS011;59166;48.908;1.870;2023-04-06T14:09:37;6.88;;;1.42;;
71360;SDS011;59166;48.908;1.870;2023-04-06T14:14:38;6.93;;;1.70;;
71360;SDS011;59166;48.908;1.870;2023-04-06T14:19:39;6.23;;;1.10;;
71360;SDS011;59166;48.908;1.870;2023-04-06T14:24:41;4.85;;;1.48;;
71360;SDS011;59166;48.908;1.870;2023-04-06T14:29:42;6.57;;;1.40;;
71360;SDS011;59166;48.908;1.870;2023-04-06T14:34:43;5.47;;;1.10;;
71360;SDS011;59166;48.908;1.870;2023-04-06T14:39:45;7.35;;;1.30;;
71360;SDS011;59166;48.908;1.870;2023-04-06T14:44:45;6.27;;;1.20;;
71360;SDS011;59166;48.908;1.870;2023-04-06T14:49:46;7.07;;;1.50;;
71360;SDS011;59166;48.908;1.870;2023-04-06T14:54:49;8.17;;;1.30;;
71360;SDS011;59166;48.908;1.870;2023-04-06T14:59:52;6.93;;;1.40;;
71360;SDS011;59166;48.908;1.870;2023-04-06T15:04:53;7.25;;;1.42;;
71360;SDS011;59166;48.908;1.870;2023-04-06T15:09:55;6.97;;;1.37;;
71360;SDS011;59166;48.908;1.870;2023-04-06T15:14:56;4.07;;;1.27;;
71360;SDS011;59166;48.908;1.870;2023-04-06T15:19:57;5.87;;;1.70;;
71360;SDS011;59166;48.908;1.870;2023-04-06T15:24:59;6.50;;;1.33;;
71360;SDS011;59166;48.908;1.870;2023-04-06T15:30:00;6.53;;;1.37;;
71360;SDS011;59166;48.908;1.870;2023-04-06T15:35:07;7.23;;;1.40;;
71360;SDS011;59166;48.908;1.870;2023-04-06T15:40:11;6.13;;;1.40;;
71360;SDS011;59166;48.908;1.870;2023-04-06T15:45:12;7.47;;;1.47;;
71360;SDS011;59166;48.908;1.870;2023-04-06T15:50:13;6.15;;;1.55;;
71360;SDS011;59166;48.908;1.870;2023-04-06T15:55:15;5.90;;;1.33;;
71360;SDS011;59166;48.908;1.870;2023-04-06T16:00:17;5.97;;;1.20;;
71360;SDS011;59166;48.908;1.870;2023-04-06T16:05:18;8.82;;;1.40;;
71360;SDS011;59166;48.908;1.870;2023-04-06T16:10:20;6.33;;;1.17;;
71360;SDS011;59166;48.908;1.870;2023-04-06T16:15:21;6.25;;;1.30;;
71360;SDS011;59166;48.908;1.870;2023-04-06T16:20:22;7.72;;;1.30;;
71360;SDS011;59166;48.908;1.870;2023-04-06T16:25:24;7.27;;;1.50;;
71360;SDS011;59166;48.908;1.870;2023-04-06T16:30:25;5.10;;;1.27;;
71360;SDS011;59166;48.908;1.870;2023-04-06T16:35:26;5.53;;;1.20;;
71360;SDS011;59166;48.908;1.870;2023-04-06T16:40:28;4.63;;;1.30;;
71360;SDS011;59166;48.908;1.870;2023-04-06T16:45:29;4.03;;;1.03;;
71360;SDS011;59166;48.908;1.870;2023-04-06T16:50:30;5.72;;;1.20;;
71360;SDS011;59166;48.908;1.870;2023-04-06T16:55:32;7.53;;;1.20;;
71360;SDS011;59166;48.908;1.870;2023-04-06T17:00:35;9.90;;;1.33;;
71360;SDS011;59166;48.908;1.870;2023-04-06T17:05:36;5.55;;;1.30;;
71360;SDS011;59166;48.908;1.870;2023-04-06T17:10:38;7.20;;;1.40;;
71360;SDS011;59166;48.908;1.870;2023-04-06T17:15:39;7.20;;;1.42;;
71360;SDS011;59166;48.908;1.870;2023-04-06T17:20:40;5.03;;;1.10;;
71360;SDS011;59166;48.908;1.870;2023-04-06T17:25:42;10.30;;;1.50;;
71360;SDS011;59166;48.908;1.870;2023-04-06T17:30:43;9.03;;;1.30;;
71360;SDS011;59166;48.908;1.870;2023-04-06T17:35:44;5.90;;;1.30;;
71360;SDS011;59166;48.908;1.870;2023-04-06T17:40:46;6.22;;;1.20;;
71360;SDS011;59166;48.908;1.870;2023-04-06T17:45:47;8.10;;;1.20;;
71360;SDS011;59166;48.908;1.870;2023-04-06T17:50:48;6.85;;;1.40;;
71360;SDS011;59166;48.908;1.870;2023-04-06T17:55:51;5.97;;;1.47;;
71360;SDS011;59166;48.908;1.870;2023-04-06T18:00:51;11.60;;;2.28;;
71360;SDS011;59166;48.908;1.870;2023-04-06T18:05:52;8.40;;;2.00;;
71360;SDS011;59166;48.908;1.870;2023-04-06T18:10:55;8.40;;;2.23;;
71360;SDS011;59166;48.908;1.870;2023-04-06T18:15:55;10.40;;;3.10;;
71360;SDS011;59166;48.908;1.870;2023-04-06T18:21:01;8.52;;;2.70;;
71360;SDS011;59166;48.908;1.870;2023-04-06T18:26:04;8.13;;;2.17;;
71360;SDS011;59166;48.908;1.870;2023-04-06T18:31:05;11.65;;;2.33;;
71360;SDS011;59166;48.908;1.870;2023-04-06T18:36:06;7.87;;;1.83;;
71360;SDS011;59166;48.908;1.870;2023-04-06T18:41:09;6.72;;;1.70;;
71360;SDS011;59166;48.908;1.870;2023-04-06T18:46:10;8.38;;;2.40;;
71360;SDS011;59166;48.908;1.870;2023-04-06T18:51:11;11.40;;;2.90;;
71360;SDS011;59166;48.908;1.870;2023-04-06T18:56:14;14.30;;;3.30;;
71360;SDS011;59166;48.908;1.870;2023-04-06T19:01:19;10.38;;;2.60;;
71360;SDS011;59166;48.908;1.870;2023-04-06T19:06:20;11.20;;;2.33;;
71360;SDS011;59166;48.908;1.870;2023-04-06T19:11:25;9.23;;;2.58;;
71360;SDS011;59166;48.908;1.870;2023-04-06T19:16:26;11.40;;;3.50;;
71360;SDS011;59166;48.908;1.870;2023-04-06T19:21:27;10.27;;;2.97;;
71360;SDS011;59166;48.908;1.870;2023-04-06T19:26:29;9.20;;;2.70;;
71360;SDS011;59166;48.908;1.870;2023-04-06T19:31:31;11.10;;;3.10;;
71360;SDS011;59166;48.908;1.870;2023-04-06T19:36:31;9.20;;;2.20;;
71360;SDS011;59166;48.908;1.870;2023-04-06T19:41:34;10.20;;;1.92;;
71360;SDS011;59166;48.908;1.870;2023-04-06T19:46:34;7.35;;;1.50;;
71360;SDS011;59166;48.908;1.870;2023-04-06T19:51:35;11.83;;;1.90;;
71360;SDS011;59166;48.908;1.870;2023-04-06T19:56:38;5.97;;;1.30;;
71360;SDS011;59166;48.908;1.870;2023-04-06T20:01:39;7.90;;;1.63;;
71360;SDS011;59166;48.908;1.870;2023-04-06T20:06:42;6.18;;;1.65;;
71360;SDS011;59166;48.908;1.870;2023-04-06T20:11:49;8.85;;;1.50;;
71360;SDS011;59166;48.908;1.870;2023-04-06T20:16:53;6.20;;;1.60;;
71360;SDS011;59166;48.908;1.870;2023-04-06T20:21:54;7.30;;;1.60;;
71360;SDS011;59166;48.908;1.870;2023-04-06T20:26:59;6.80;;;1.63;;
71360;SDS011;59166;48.908;1.870;2023-04-06T20:32:01;9.40;;;1.90;;
71360;SDS011;59166;48.908;1.870;2023-04-06T20:37:02;8.90;;;2.00;;
71360;SDS011;59166;48.908;1.870;2023-04-06T20:42:05;8.75;;;2.10;;
71360;SDS011;59166;48.908;1.870;2023-04-06T20:47:06;10.93;;;2.63;;
71360;SDS011;59166;48.908;1.870;2023-04-06T20:52:07;9.15;;;2.60;;
71360;SDS011;59166;48.908;1.870;2023-04-06T20:57:11;9.18;;;2.20;;
71360;SDS011;59166;48.908;1.870;2023-04-06T21:02:13;6.57;;;1.47;;
71360;SDS011;59166;48.908;1.870;2023-04-06T21:07:14;6.28;;;1.50;;
71360;SDS011;59166;48.908;1.870;2023-04-06T21:12:16;6.40;;;1.70;;
71360;SDS011;59166;48.908;1.870;2023-04-06T21:17:17;9.37;;;2.30;;
71360;SDS011;59166;48.908;1.870;2023-04-06T21:22:18;10.75;;;2.38;;
71360;SDS011;59166;48.908;1.870;2023-04-06T21:27:21;8.00;;;2.28;;
71360;SDS011;59166;48.908;1.870;2023-04-06T21:32:21;8.30;;;1.80;;
71360;SDS011;59166;48.908;1.870;2023-04-06T21:37:22;7.63;;;1.83;;
71360;SDS011;59166;48.908;1.870;2023-04-06T21:42:24;8.87;;;1.90;;
71360;SDS011;59166;48.908;1.870;2023-04-06T21:47:25;10.27;;;1.98;;
71360;SDS011;59166;48.908;1.870;2023-04-06T21:52:25;9.23;;;1.90;;
71360;SDS011;59166;48.908;1.870;2023-04-06T21:57:27;9.67;;;1.50;;
71360;SDS011;59166;48.908;1.870;2023-04-06T22:02:28;6.82;;;1.63;;
71360;SDS011;59166;48.908;1.870;2023-04-06T22:07:29;7.93;;;1.40;;
71360;SDS011;59166;48.908;1.870;2023-04-06T22:12:31;8.70;;;1.70;;
71360;SDS011;59166;48.908;1.870;2023-04-06T22:17:31;8.98;;;1.70;;
71360;SDS011;59166;48.908;1.870;2023-04-06T22:22:32;8.70;;;1.50;;
71360;SDS011;59166;48.908;1.870;2023-04-06T22:27:34;6.37;;;1.63;;
71360;SDS011;59166;48.908;1.870;2023-04-06T22:32:35;11.32;;;1.75;;
71360;SDS011;59166;48.908;1.870;2023-04-06T22:37:36;8.30;;;1.50;;
71360;SDS011;59166;48.908;1.870;2023-04-06T22:42:41;7.78;;;1.55;;
71360;SDS011;59166;48.908;1.870;2023-04-06T22:47:42;9.57;;;1.30;;
71360;SDS011;59166;48.908;1.870;2023-04-06T22:52:43;5.90;;;1.60;;
71360;SDS011;59166;48.908;1.870;2023-04-06T22:57:45;6.07;;;1.30;;
71360;SDS011;59166;48.908;1.870;2023-04-06T23:02:45;7.63;;;1.60;;
71360;SDS011;59166;48.908;1.870;2023-04-06T23:07:46;7.87;;;2.10;;
71360;SDS011;59166;48.908;1.870;2023-04-06T23:12:48;8.30;;;1.60;;
71360;SDS011;59166;48.908;1.870;2023-04-06T23:17:48;6.53;;;1.30;;
71360;SDS011;59166;48.908;1.870;2023-04-06T23:22:49;8.20;;;1.43;;
71360;SDS011;59166;48.908;1.870;2023-04-06T23:27:51;6.37;;;1.37;;
71360;SDS011;59166;48.908;1.870;2023-04-06T23:32:52;9.50;;;1.65;;
71360;SDS011;59166;48.908;1.870;2023-04-06T23:37:52;6.83;;;1.40;;
71360;SDS011;59166;48.908;1.870;2023-04-06T23:42:55;8.43;;;1.40;;
71360;SDS011;59166;48.908;1.870;2023-04-06T23:47:55;9.95;;;1.60;;
71360;SDS011;59166;48.908;1.870;2023-04-06T23:52:56;6.60;;;1.60;;
71360;SDS011;59166;48.908;1.870;2023-04-06T23:57:59;7.60;;;1.90;;
